Time;durP1;ratioP1;P1;durP2;ratioP2;P2;SDS_P1;SDS_P2;PMS_P1;PMS_P2;Temp;Humidity;BMP_temperature;BMP_pressure;BME280_temperature;BME280_humidity;BME280_pressure;Samples;Min_cycle;Max_cycle;Signal;HPM_P1;HPM_P2
2021/07/09 00:02:00;;;;;;;4.22;2.83;;;;;;;;;;4946244;28;21186;-81
2021/07/09 00:04:27;;;;;;;4.43;2.95;;;;;;;;;;4941675;28;20031;-82
2021/07/09 00:06:55;;;;;;;3.90;2.83;;;;;;;;;;4953743;28;20647;-80
2021/07/09 00:09:22;;;;;;;4.00;2.70;;;;;;;;;;4949071;28;20531;-82
2021/07/09 00:11:50;;;;;;;5.05;2.88;;;;;;;;;;4948148;28;21445;-80
2021/07/09 00:14:17;;;;;;;3.50;2.60;;;;;;;;;;4945841;28;20444;-79
2021/07/09 00:16:47;;;;;;;5.00;3.03;;;;;;;;;;4959963;28;20074;-80
2021/07/09 00:19:14;;;;;;;5.20;2.88;;;;;;;;;;4944275;28;20031;-80
2021/07/09 00:21:40;;;;;;;4.93;2.67;;;;;;;;;;4952450;28;20055;-79
2021/07/09 00:24:08;;;;;;;4.85;2.53;;;;;;;;;;4948540;28;20063;-79
2021/07/09 00:26:35;;;;;;;3.80;2.85;;;;;;;;;;4948838;28;20058;-80
2021/07/09 00:29:02;;;;;;;2.92;2.42;;;;;;;;;;4946497;28;20071;-79
2021/07/09 00:31:30;;;;;;;4.05;2.70;;;;;;;;;;4950477;28;20118;-79
2021/07/09 00:33:56;;;;;;;5.78;3.00;;;;;;;;;;4946034;28;20074;-79
2021/07/09 00:36:23;;;;;;;4.63;2.60;;;;;;;;;;4951721;28;20059;-81
2021/07/09 00:38:49;;;;;;;3.70;2.50;;;;;;;;;;4948057;28;20087;-81
2021/07/09 00:41:16;;;;;;;5.20;2.90;;;;;;;;;;4949731;28;20055;-81
2021/07/09 00:43:42;;;;;;;4.75;2.33;;;;;;;;;;4951511;28;20059;-82
2021/07/09 00:46:09;;;;;;;3.42;2.40;;;;;;;;;;4949445;28;20039;-79
2021/07/09 00:48:36;;;;;;;4.07;2.60;;;;;;;;;;4945356;28;20059;-80
2021/07/09 00:51:04;;;;;;;5.20;2.50;;;;;;;;;;4949028;28;20079;-80
2021/07/09 00:53:31;;;;;;;2.88;2.40;;;;;;;;;;4950031;28;20051;-79
2021/07/09 00:55:57;;;;;;;4.47;2.38;;;;;;;;;;4951747;28;20485;-80
2021/07/09 00:58:24;;;;;;;4.18;2.38;;;;;;;;;;4949880;28;20058;-78
2021/07/09 01:00:51;;;;;;;2.40;2.20;;;;;;;;;;4945721;28;20071;-80
2021/07/09 01:03:17;;;;;;;3.53;2.30;;;;;;;;;;4949696;28;20055;-82
2021/07/09 01:05:44;;;;;;;4.82;2.60;;;;;;;;;;4952750;28;20078;-80
2021/07/09 01:08:11;;;;;;;3.85;2.60;;;;;;;;;;4947825;28;20070;-80
2021/07/09 01:10:38;;;;;;;6.68;2.88;;;;;;;;;;4947219;28;20062;-80
2021/07/09 01:13:04;;;;;;;3.85;2.70;;;;;;;;;;4950277;28;20055;-80
2021/07/09 01:15:31;;;;;;;4.43;2.72;;;;;;;;;;4954739;28;20031;-81
2021/07/09 01:17:57;;;;;;;3.70;2.80;;;;;;;;;;4956330;28;20043;-81
2021/07/09 01:20:23;;;;;;;5.25;2.80;;;;;;;;;;4945653;28;20070;-80
2021/07/09 01:22:50;;;;;;;5.28;2.67;;;;;;;;;;4950760;28;20113;-79
2021/07/09 01:25:18;;;;;;;4.90;2.92;;;;;;;;;;4945617;28;20066;-80
2021/07/09 01:27:46;;;;;;;3.10;2.47;;;;;;;;;;4946406;28;20482;-81
2021/07/09 01:30:17;;;;;;;3.85;2.80;;;;;;;;;;4950490;28;20113;-81
2021/07/09 01:32:43;;;;;;;4.53;2.78;;;;;;;;;;4947153;28;20110;-80
2021/07/09 01:35:10;;;;;;;3.97;2.72;;;;;;;;;;4947756;28;20110;-79
2021/07/09 01:37:36;;;;;;;2.85;2.60;;;;;;;;;;4946525;28;20062;-79
2021/07/09 01:40:05;;;;;;;3.95;2.60;;;;;;;;;;4950672;28;20090;-80
2021/07/09 01:42:32;;;;;;;3.60;2.70;;;;;;;;;;4948451;28;20113;-79
2021/07/09 01:44:58;;;;;;;4.80;3.13;;;;;;;;;;4948862;28;20055;-80
2021/07/09 01:47:25;;;;;;;4.53;2.92;;;;;;;;;;4937744;28;20537;-78
2021/07/09 01:49:53;;;;;;;3.47;2.80;;;;;;;;;;4944691;28;20067;-80
2021/07/09 01:52:20;;;;;;;4.32;2.70;;;;;;;;;;4950011;28;20073;-80
2021/07/09 01:54:46;;;;;;;3.47;2.63;;;;;;;;;;4949265;28;20070;-79
2021/07/09 01:57:13;;;;;;;3.15;2.63;;;;;;;;;;4958612;28;20063;-80
2021/07/09 01:59:40;;;;;;;2.97;2.40;;;;;;;;;;4943480;28;20070;-80
2021/07/09 02:02:06;;;;;;;3.67;2.58;;;;;;;;;;4949049;28;20070;-80
2021/07/09 02:04:33;;;;;;;4.32;2.92;;;;;;;;;;4944939;28;20849;-78
2021/07/09 02:07:00;;;;;;;3.40;2.55;;;;;;;;;;4948779;28;20059;-78
2021/07/09 02:09:26;;;;;;;3.08;2.60;;;;;;;;;;4942741;28;20162;-79
2021/07/09 02:11:53;;;;;;;5.20;2.80;;;;;;;;;;4946690;28;20067;-78
2021/07/09 02:14:19;;;;;;;3.38;2.90;;;;;;;;;;4949828;28;20066;-79
2021/07/09 02:16:45;;;;;;;3.28;2.95;;;;;;;;;;4946221;28;20067;-79
2021/07/09 02:19:12;;;;;;;3.80;2.70;;;;;;;;;;4947591;28;20066;-78
2021/07/09 02:21:42;;;;;;;4.03;2.60;;;;;;;;;;4942445;28;20127;-78
2021/07/09 02:24:08;;;;;;;4.05;2.70;;;;;;;;;;4945228;28;20093;-78
2021/07/09 02:26:35;;;;;;;3.95;2.85;;;;;;;;;;4946478;28;20054;-79
2021/07/09 02:29:01;;;;;;;3.75;2.78;;;;;;;;;;4942087;28;20062;-79
2021/07/09 02:31:28;;;;;;;4.10;2.60;;;;;;;;;;4947755;28;20464;-78
2021/07/09 02:33:55;;;;;;;5.40;2.92;;;;;;;;;;4949012;28;20062;-78
2021/07/09 02:36:21;;;;;;;3.38;2.70;;;;;;;;;;4946774;28;20059;-78
2021/07/09 02:38:47;;;;;;;4.13;2.95;;;;;;;;;;4960519;28;20047;-79
2021/07/09 02:41:14;;;;;;;4.65;2.90;;;;;;;;;;4945921;28;20828;-79
2021/07/09 02:43:40;;;;;;;4.15;2.80;;;;;;;;;;4937224;28;20051;-78
2021/07/09 02:46:07;;;;;;;4.65;3.10;;;;;;;;;;4942897;28;20070;-79
2021/07/09 02:48:33;;;;;;;7.50;2.85;;;;;;;;;;4946657;28;20455;-78
2021/07/09 02:51:00;;;;;;;3.63;2.90;;;;;;;;;;4947866;28;20066;-79
2021/07/09 02:53:26;;;;;;;6.15;3.25;;;;;;;;;;4946950;28;20082;-79
2021/07/09 02:55:52;;;;;;;4.68;3.00;;;;;;;;;;4949346;28;20077;-80
2021/07/09 02:58:19;;;;;;;4.15;3.15;;;;;;;;;;4938373;28;20067;-79
2021/07/09 03:00:45;;;;;;;3.88;3.05;;;;;;;;;;4946969;28;20113;-79
2021/07/09 03:03:12;;;;;;;3.53;2.72;;;;;;;;;;4949243;28;20039;-80
2021/07/09 03:05:38;;;;;;;4.93;3.05;;;;;;;;;;4944962;28;20047;-78
2021/07/09 03:08:04;;;;;;;5.13;2.67;;;;;;;;;;4944756;28;20067;-79
2021/07/09 03:10:31;;;;;;;3.90;3.05;;;;;;;;;;4946369;28;20066;-78
2021/07/09 03:12:57;;;;;;;5.85;3.05;;;;;;;;;;4948758;28;20177;-79
2021/07/09 03:15:24;;;;;;;4.18;2.65;;;;;;;;;;4947496;28;20121;-79
2021/07/09 03:17:50;;;;;;;4.53;2.83;;;;;;;;;;4945365;28;20181;-79
2021/07/09 03:20:17;;;;;;;5.68;2.63;;;;;;;;;;4944621;28;20551;-80
2021/07/09 03:22:44;;;;;;;3.40;2.40;;;;;;;;;;4945941;28;20606;-78
2021/07/09 03:25:12;;;;;;;4.65;2.90;;;;;;;;;;4943918;28;20066;-79
2021/07/09 03:27:39;;;;;;;3.67;2.80;;;;;;;;;;4939000;28;20058;-78
2021/07/09 03:30:06;;;;;;;2.92;2.50;;;;;;;;;;4947659;28;20070;-79
2021/07/09 03:32:32;;;;;;;3.38;2.72;;;;;;;;;;4955558;28;20066;-79
2021/07/09 03:34:59;;;;;;;3.05;2.63;;;;;;;;;;4952243;28;20078;-78
2021/07/09 03:37:25;;;;;;;3.72;2.80;;;;;;;;;;4951482;28;20106;-78
2021/07/09 03:39:52;;;;;;;4.18;2.88;;;;;;;;;;4952487;28;20062;-79
2021/07/09 03:42:18;;;;;;;4.13;2.60;;;;;;;;;;4949342;28;20167;-79
2021/07/09 03:44:45;;;;;;;2.75;2.50;;;;;;;;;;4950000;28;20066;-78
2021/07/09 03:47:12;;;;;;;3.40;2.40;;;;;;;;;;4952489;28;20110;-81
2021/07/09 03:49:38;;;;;;;4.20;2.85;;;;;;;;;;4951606;28;20055;-81
2021/07/09 03:52:06;;;;;;;3.90;2.67;;;;;;;;;;4949533;28;20067;-81
2021/07/09 03:54:33;;;;;;;4.63;2.53;;;;;;;;;;4961337;28;20075;-80
2021/07/09 03:56:59;;;;;;;3.83;2.20;;;;;;;;;;4952067;28;20098;-79
2021/07/09 03:59:26;;;;;;;3.53;2.72;;;;;;;;;;4963511;28;20035;-79
2021/07/09 04:01:52;;;;;;;2.95;2.50;;;;;;;;;;4955456;28;20098;-80
2021/07/09 04:04:19;;;;;;;3.38;2.60;;;;;;;;;;4950033;28;20066;-80
2021/07/09 04:06:45;;;;;;;4.47;2.22;;;;;;;;;;4950755;28;20058;-82
2021/07/09 04:09:11;;;;;;;3.53;2.10;;;;;;;;;;4949860;28;20489;-82
2021/07/09 04:11:38;;;;;;;3.40;2.38;;;;;;;;;;4949202;28;20511;-81
2021/07/09 04:14:04;;;;;;;4.03;2.20;;;;;;;;;;4950364;28;20059;-82
2021/07/09 04:16:31;;;;;;;4.53;2.38;;;;;;;;;;4949914;28;20055;-81
2021/07/09 04:18:57;;;;;;;3.08;2.33;;;;;;;;;;4965257;28;20511;-80
2021/07/09 04:21:23;;;;;;;2.38;2.10;;;;;;;;;;4944889;28;20063;-79
2021/07/09 04:23:50;;;;;;;4.20;2.17;;;;;;;;;;4948891;28;20035;-80
2021/07/09 04:26:16;;;;;;;2.92;2.20;;;;;;;;;;4942760;28;20071;-79
2021/07/09 04:28:43;;;;;;;2.78;2.28;;;;;;;;;;4949227;28;20066;-79
2021/07/09 04:31:09;;;;;;;6.72;2.25;;;;;;;;;;4950523;28;20551;-80
2021/07/09 04:33:35;;;;;;;4.22;2.15;;;;;;;;;;4950390;28;20059;-79
2021/07/09 04:36:02;;;;;;;4.10;2.20;;;;;;;;;;4950687;28;20058;-79
2021/07/09 04:38:28;;;;;;;3.35;2.03;;;;;;;;;;4940748;28;20121;-80
2021/07/09 04:40:55;;;;;;;2.40;2.10;;;;;;;;;;4950234;28;20457;-80
2021/07/09 04:43:21;;;;;;;3.72;2.50;;;;;;;;;;4947127;28;20063;-79
2021/07/09 04:45:48;;;;;;;2.60;2.20;;;;;;;;;;4947120;28;20059;-79
2021/07/09 04:48:14;;;;;;;3.65;2.05;;;;;;;;;;4948287;28;20082;-79
2021/07/09 04:50:40;;;;;;;2.45;2.17;;;;;;;;;;4947306;28;20468;-76
2021/07/09 04:53:07;;;;;;;3.05;2.10;;;;;;;;;;4950413;28;20192;-82
2021/07/09 04:55:33;;;;;;;3.17;1.95;;;;;;;;;;4938874;28;20095;-79
2021/07/09 04:58:00;;;;;;;3.00;1.98;;;;;;;;;;4947018;28;20138;-79
2021/07/09 05:00:28;;;;;;;4.72;2.17;;;;;;;;;;4942704;28;20471;-77
2021/07/09 05:02:57;;;;;;;2.63;2.30;;;;;;;;;;4948386;28;20122;-79
2021/07/09 05:05:24;;;;;;;1.95;1.50;;;;;;;;;;4940688;28;20139;-77
2021/07/09 05:07:50;;;;;;;2.42;1.73;;;;;;;;;;4938745;28;21465;-78
2021/07/09 05:10:17;;;;;;;2.42;2.17;;;;;;;;;;4942962;28;20079;-77
2021/07/09 05:12:43;;;;;;;3.03;2.10;;;;;;;;;;4942020;28;20075;-78
2021/07/09 05:15:10;;;;;;;2.70;1.90;;;;;;;;;;4942920;28;20058;-77
2021/07/09 05:17:36;;;;;;;3.55;2.00;;;;;;;;;;4942308;28;20533;-76
2021/07/09 05:20:03;;;;;;;4.20;2.22;;;;;;;;;;4943033;28;20608;-80
2021/07/09 05:22:30;;;;;;;3.35;2.00;;;;;;;;;;4936433;28;20059;-84
2021/07/09 05:24:57;;;;;;;3.05;2.00;;;;;;;;;;4944751;28;20047;-86
2021/07/09 05:27:26;;;;;;;4.53;1.98;;;;;;;;;;4945901;28;20125;-87
2021/07/09 05:29:53;;;;;;;4.78;2.15;;;;;;;;;;4954792;28;20271;-85
2021/07/09 05:32:23;;;;;;;3.17;2.10;;;;;;;;;;4945631;28;20056;-85
2021/07/09 05:34:50;;;;;;;2.67;2.10;;;;;;;;;;4943522;28;22758;-84
2021/07/09 05:37:17;;;;;;;4.07;1.80;;;;;;;;;;4934992;28;20130;-86
2021/07/09 05:39:44;;;;;;;3.60;1.95;;;;;;;;;;4942356;28;20059;-87
2021/07/09 05:42:10;;;;;;;4.38;1.90;;;;;;;;;;4942214;28;20059;-87
2021/07/09 05:44:37;;;;;;;3.67;1.98;;;;;;;;;;4946639;28;20126;-85
2021/07/09 05:47:03;;;;;;;3.28;1.90;;;;;;;;;;4945356;28;20056;-85
2021/07/09 05:49:29;;;;;;;2.15;1.77;;;;;;;;;;4945457;28;20031;-87
2021/07/09 05:51:56;;;;;;;2.15;1.80;;;;;;;;;;4946381;28;20074;-86
2021/07/09 05:54:22;;;;;;;3.35;1.88;;;;;;;;;;4942943;28;20656;-87
2021/07/09 05:56:49;;;;;;;2.65;1.73;;;;;;;;;;4940482;28;20055;-86
2021/07/09 05:59:15;;;;;;;2.50;1.70;;;;;;;;;;4947875;28;20054;-83
2021/07/09 06:01:42;;;;;;;3.75;1.75;;;;;;;;;;4950831;28;20535;-85
2021/07/09 06:04:08;;;;;;;3.88;1.75;;;;;;;;;;4948656;28;20058;-84
2021/07/09 06:06:34;;;;;;;2.83;2.08;;;;;;;;;;4946320;28;20047;-84
2021/07/09 06:09:01;;;;;;;3.08;1.90;;;;;;;;;;4948257;28;20078;-85
2021/07/09 06:11:29;;;;;;;3.03;2.03;;;;;;;;;;4950432;28;20067;-84
2021/07/09 06:13:55;;;;;;;2.88;1.75;;;;;;;;;;4948147;28;20038;-84
2021/07/09 06:16:22;;;;;;;2.30;1.90;;;;;;;;;;4947997;28;20050;-84
2021/07/09 06:18:49;;;;;;;4.30;2.10;;;;;;;;;;4936257;28;20131;-86
2021/07/09 06:21:15;;;;;;;8.95;2.03;;;;;;;;;;4944521;28;20070;-86
2021/07/09 06:23:42;;;;;;;2.75;1.95;;;;;;;;;;4940577;28;20047;-86
2021/07/09 06:26:09;;;;;;;4.03;1.80;;;;;;;;;;4940340;28;20059;-87
2021/07/09 06:28:35;;;;;;;4.45;1.95;;;;;;;;;;4936983;28;20067;-88
2021/07/09 06:31:02;;;;;;;4.60;1.90;;;;;;;;;;4943229;28;20050;-86
2021/07/09 06:33:29;;;;;;;3.75;1.83;;;;;;;;;;4940592;28;20078;-87
2021/07/09 06:35:55;;;;;;;2.63;1.77;;;;;;;;;;4942760;28;20040;-86
2021/07/09 06:38:22;;;;;;;2.97;1.80;;;;;;;;;;4945903;28;20493;-84
2021/07/09 06:40:48;;;;;;;2.53;1.52;;;;;;;;;;4950707;28;20046;-85
2021/07/09 06:43:15;;;;;;;2.97;1.90;;;;;;;;;;4948960;28;20051;-85
2021/07/09 06:45:42;;;;;;;2.95;1.70;;;;;;;;;;4948156;28;20058;-89
2021/07/09 06:48:08;;;;;;;2.47;1.70;;;;;;;;;;4948580;28;20062;-86
2021/07/09 06:50:36;;;;;;;2.97;1.88;;;;;;;;;;4940770;28;20192;-87
2021/07/09 06:53:03;;;;;;;2.45;1.70;;;;;;;;;;4947948;28;20077;-86
2021/07/09 06:55:30;;;;;;;5.22;2.05;;;;;;;;;;4939610;28;20078;-88
2021/07/09 06:57:56;;;;;;;8.35;2.10;;;;;;;;;;4940698;28;20027;-86
2021/07/09 07:00:23;;;;;;;3.63;1.90;;;;;;;;;;4939639;28;20062;-87
2021/07/09 07:02:49;;;;;;;3.35;1.65;;;;;;;;;;4940889;28;20062;-87
2021/07/09 07:05:17;;;;;;;3.55;2.13;;;;;;;;;;4938996;28;20059;-84
2021/07/09 07:07:43;;;;;;;6.90;2.47;;;;;;;;;;4937908;28;20067;-81
2021/07/09 07:10:10;;;;;;;5.30;2.20;;;;;;;;;;4945901;28;20073;-88
2021/07/09 07:12:37;;;;;;;5.03;1.80;;;;;;;;;;4954089;28;20078;-91
2021/07/09 07:15:04;;;;;;;4.78;1.83;;;;;;;;;;4947802;28;20121;-92
2021/07/09 07:17:31;;;;;;;3.42;1.75;;;;;;;;;;4936760;28;20043;-91
2021/07/09 07:19:57;;;;;;;3.55;1.75;;;;;;;;;;4948058;28;20134;-90
2021/07/09 07:22:24;;;;;;;3.58;1.75;;;;;;;;;;4941566;28;20070;-92
2021/07/09 07:24:51;;;;;;;2.17;1.80;;;;;;;;;;4942795;28;20063;-93
2021/07/09 07:27:24;;;;;;;3.78;2.10;;;;;;;;;;4943611;28;20055;-91
2021/07/09 07:29:51;;;;;;;4.18;1.70;;;;;;;;;;4947754;28;20681;-91
2021/07/09 07:32:18;;;;;;;3.33;1.65;;;;;;;;;;4946434;28;20078;-90
2021/07/09 07:34:44;;;;;;;4.65;2.10;;;;;;;;;;4939383;28;20031;-92
2021/07/09 07:37:11;;;;;;;3.97;1.90;;;;;;;;;;4957758;28;20032;-92
2021/07/09 07:39:37;;;;;;;4.38;1.95;;;;;;;;;;4944163;28;20035;-90
2021/07/09 07:42:04;;;;;;;4.38;2.00;;;;;;;;;;4939949;28;20102;-89
2021/07/09 07:44:30;;;;;;;5.13;2.08;;;;;;;;;;4955456;28;20098;-90
2021/07/09 07:46:57;;;;;;;3.45;1.70;;;;;;;;;;4959577;28;20086;-92
2021/07/09 07:49:23;;;;;;;2.55;1.80;;;;;;;;;;4951357;28;20040;-91
2021/07/09 07:51:50;;;;;;;5.10;1.95;;;;;;;;;;4946750;28;20113;-86
2021/07/09 07:54:17;;;;;;;2.85;1.50;;;;;;;;;;4946251;28;20078;-86
2021/07/09 07:56:44;;;;;;;4.55;1.80;;;;;;;;;;4941116;28;20035;-84
2021/07/09 07:59:11;;;;;;;1.95;1.50;;;;;;;;;;4953865;28;20082;-87
2021/07/09 08:01:37;;;;;;;2.13;1.70;;;;;;;;;;4944833;28;20529;-88
2021/07/09 08:04:04;;;;;;;3.00;1.95;;;;;;;;;;4950192;28;20035;-89
2021/07/09 08:06:31;;;;;;;2.47;1.65;;;;;;;;;;4958809;28;20059;-86
2021/07/09 08:08:57;;;;;;;4.68;1.70;;;;;;;;;;4941370;28;20063;-86
2021/07/09 08:11:24;;;;;;;3.88;1.70;;;;;;;;;;4941660;28;20071;-87
2021/07/09 08:13:50;;;;;;;4.20;2.15;;;;;;;;;;4935382;28;20821;-88
2021/07/09 08:16:17;;;;;;;3.80;2.25;;;;;;;;;;4939364;28;20059;-87
2021/07/09 08:18:44;;;;;;;3.58;2.00;;;;;;;;;;4940751;28;20036;-87
2021/07/09 08:21:10;;;;;;;3.75;1.70;;;;;;;;;;4948886;28;20051;-88
2021/07/09 08:23:37;;;;;;;3.88;2.05;;;;;;;;;;4938230;28;20081;-87
2021/07/09 08:26:03;;;;;;;2.53;1.98;;;;;;;;;;4956338;28;20075;-88
2021/07/09 08:28:30;;;;;;;2.50;1.63;;;;;;;;;;4943290;28;20059;-87
2021/07/09 08:30:57;;;;;;;5.13;1.95;;;;;;;;;;4952596;28;20073;-92
2021/07/09 08:33:26;;;;;;;3.55;2.00;;;;;;;;;;4956035;28;20391;-91
2021/07/09 08:35:52;;;;;;;2.70;1.90;;;;;;;;;;4953966;28;22185;-91
2021/07/09 08:38:19;;;;;;;3.88;2.00;;;;;;;;;;4954223;28;20077;-92
2021/07/09 08:40:45;;;;;;;3.10;1.60;;;;;;;;;;4954957;28;20023;-90
2021/07/09 08:43:12;;;;;;;3.67;2.00;;;;;;;;;;4955536;28;20067;-91
2021/07/09 08:45:38;;;;;;;4.30;2.67;;;;;;;;;;4956445;28;20031;-92
2021/07/09 08:48:05;;;;;;;3.20;2.05;;;;;;;;;;4953084;28;20515;-95
2021/07/09 08:50:32;;;;;;;3.00;1.90;;;;;;;;;;4950842;28;20027;-92
2021/07/09 08:52:58;;;;;;;3.08;1.90;;;;;;;;;;4947365;28;20396;-92
2021/07/09 08:55:25;;;;;;;4.45;2.38;;;;;;;;;;4953981;28;20046;-92
2021/07/09 08:57:51;;;;;;;2.40;1.95;;;;;;;;;;4949041;28;21423;-92
2021/07/09 09:00:26;;;;;;;6.57;2.20;;;;;;;;;;4950448;28;20073;-92
2021/07/09 09:02:54;;;;;;;3.95;2.10;;;;;;;;;;4943770;28;20035;-91
2021/07/09 09:05:20;;;;;;;6.30;2.00;;;;;;;;;;4941548;28;20063;-90
2021/07/09 09:07:59;;;;;;;5.55;2.15;;;;;;;;;;4954205;28;20110;-90
2021/07/09 09:10:39;;;;;;;4.53;2.03;;;;;;;;;;4946956;28;20031;-78
2021/07/09 09:13:12;;;;;;;3.10;2.42;;;;;;;;;;4944820;28;20123;-91
2021/07/09 09:15:40;;;;;;;4.53;2.38;;;;;;;;;;4947148;28;20451;-90
2021/07/09 09:18:33;;;;;;;;;;;;;;;;;;;;;
2021/07/09 09:20:59;;;;;;;5.15;2.22;;;;;;;;;;4947078;28;20039;-92
2021/07/09 09:23:26;;;;;;;3.28;2.10;;;;;;;;;;4950869;28;20035;-77
2021/07/09 09:25:53;;;;;;;4.72;2.40;;;;;;;;;;4952170;28;20047;-89
2021/07/09 09:28:20;;;;;;;4.25;2.60;;;;;;;;;;4946415;28;20035;-87
2021/07/09 09:30:50;;;;;;;5.85;2.35;;;;;;;;;;4956612;28;20070;-89
2021/07/09 09:33:17;;;;;;;3.88;2.60;;;;;;;;;;4950899;28;20063;-91
2021/07/09 09:35:44;;;;;;;3.05;2.30;;;;;;;;;;4942931;28;20031;-87
2021/07/09 09:38:24;;;;;;;3.13;2.30;;;;;;;;;;4929634;28;20095;-86
2021/07/09 09:40:51;;;;;;;3.72;2.70;;;;;;;;;;4938950;28;20055;-88
2021/07/09 09:43:22;;;;;;;4.70;2.42;;;;;;;;;;4949350;28;20063;-87
2021/07/09 09:45:48;;;;;;;;;;;;;;;;;;4936752;28;20071;-88
2021/07/09 09:48:15;;;;;;;5.35;2.65;;;;;;;;;;4939316;28;20013;-88
2021/07/09 09:50:43;;;;;;;3.88;2.15;;;;;;;;;;4941836;28;20052;-88
2021/07/09 09:53:09;;;;;;;2.97;2.30;;;;;;;;;;4951153;28;20113;-89
2021/07/09 09:55:36;;;;;;;4.38;2.33;;;;;;;;;;4945305;28;20047;-91
2021/07/09 09:58:15;;;;;;;6.55;2.78;;;;;;;;;;4951109;28;20067;-87
2021/07/09 10:00:46;;;;;;;4.68;2.60;;;;;;;;;;4951124;28;20063;-89
2021/07/09 10:03:13;;;;;;;3.97;2.55;;;;;;;;;;4946223;28;20067;-88
2021/07/09 10:05:40;;;;;;;3.63;2.80;;;;;;;;;;4948916;28;20065;-90
2021/07/09 10:08:11;;;;;;;4.38;2.80;;;;;;;;;;4948136;28;20067;-90
2021/07/09 10:10:38;;;;;;;;;;;;;;;;;;4946231;28;20558;-88
2021/07/09 10:13:05;;;;;;;5.13;2.60;;;;;;;;;;4948434;28;20030;-91
2021/07/09 10:15:32;;;;;;;4.18;2.70;;;;;;;;;;4949329;28;20031;-90
2021/07/09 10:17:59;;;;;;;4.63;2.80;;;;;;;;;;4948839;28;20067;-91
2021/07/09 10:20:26;;;;;;;4.47;2.30;;;;;;;;;;4945837;28;20087;-89
2021/07/09 10:22:52;;;;;;;3.30;2.50;;;;;;;;;;4936695;28;21374;-89
2021/07/09 10:25:20;;;;;;;5.55;2.85;;;;;;;;;;4945842;28;20059;-72
2021/07/09 10:27:46;;;;;;;3.45;2.38;;;;;;;;;;4945405;28;20200;-72
2021/07/09 10:30:14;;;;;;;5.60;2.88;;;;;;;;;;4938454;28;20051;-72
2021/07/09 10:32:49;;;;;;;3.50;2.50;;;;;;;;;;4937901;28;20082;-71
2021/07/09 10:35:41;;;;;;;4.20;2.60;;;;;;;;;;4937163;28;20085;-71
2021/07/09 10:38:14;;;;;;;3.38;2.47;;;;;;;;;;4937067;28;20575;-72
2021/07/09 10:40:41;;;;;;;2.80;2.30;;;;;;;;;;4934458;28;20055;-72
2021/07/09 10:43:10;;;;;;;7.57;2.67;;;;;;;;;;4935748;28;20056;-71
2021/07/09 10:45:38;;;;;;;4.40;3.00;;;;;;;;;;4935557;28;20060;-72
2021/07/09 10:48:15;;;;;;;4.05;2.92;;;;;;;;;;4942425;28;20101;-73
2021/07/09 10:50:54;;;;;;;3.58;2.58;;;;;;;;;;4942931;28;20154;-71
2021/07/09 10:53:25;;;;;;;3.85;2.63;;;;;;;;;;4940687;28;20535;-74
2021/07/09 10:56:09;;;;;;;3.03;2.50;;;;;;;;;;4940619;28;20093;-74
2021/07/09 10:58:40;;;;;;;3.92;2.90;;;;;;;;;;4944687;28;20061;-72
2021/07/09 11:01:06;;;;;;;4.88;2.83;;;;;;;;;;4935513;28;20071;-73
2021/07/09 11:03:35;;;;;;;4.82;2.90;;;;;;;;;;4941946;28;20082;-72
2021/07/09 11:06:04;;;;;;;4.85;2.88;;;;;;;;;;4937269;28;20063;-73
2021/07/09 11:08:34;;;;;;;3.30;2.90;;;;;;;;;;4934887;28;20440;-73
2021/07/09 11:11:00;;;;;;;3.80;2.70;;;;;;;;;;4936413;28;20093;-73
2021/07/09 11:13:42;;;;;;;5.20;2.92;;;;;;;;;;4936442;28;20062;-74
2021/07/09 11:16:21;;;;;;;3.58;2.83;;;;;;;;;;4935635;28;20056;-72
2021/07/09 11:19:02;;;;;;;4.15;3.10;;;;;;;;;;4936436;28;20051;-73
2021/07/09 11:21:32;;;;;;;7.38;3.10;;;;;;;;;;4937307;28;20075;-73
2021/07/09 11:24:09;;;;;;;4.28;2.80;;;;;;;;;;4936302;28;20054;-72
2021/07/09 11:26:40;;;;;;;3.13;2.67;;;;;;;;;;4934482;28;20059;-73
2021/07/09 11:29:23;;;;;;;5.35;2.80;;;;;;;;;;4939463;28;20124;-73
2021/07/09 11:31:50;;;;;;;4.28;2.47;;;;;;;;;;4941929;28;20075;-73
2021/07/09 11:34:17;;;;;;;3.83;2.63;;;;;;;;;;4951325;28;20098;-73
2021/07/09 11:36:45;;;;;;;2.97;2.42;;;;;;;;;;4938829;28;20087;-73
2021/07/09 11:39:19;;;;;;;3.40;2.70;;;;;;;;;;4938988;28;20058;-73
2021/07/09 11:42:05;;;;;;;4.28;2.40;;;;;;;;;;4936074;28;20546;-73
2021/07/09 11:44:33;;;;;;;4.18;2.30;;;;;;;;;;4939698;28;20055;-73
2021/07/09 11:47:04;;;;;;;3.25;2.60;;;;;;;;;;4940877;28;20067;-73
2021/07/09 11:49:31;;;;;;;;;;;;;;;;;;4938798;28;20055;-73
2021/07/09 11:51:59;;;;;;;4.10;2.70;;;;;;;;;;4939529;28;19946;-73
2021/07/09 11:54:27;;;;;;;3.75;2.30;;;;;;;;;;4941526;28;20086;-73
2021/07/09 11:56:55;;;;;;;2.95;2.55;;;;;;;;;;4936828;28;20087;-74
2021/07/09 11:59:21;;;;;;;3.22;2.50;;;;;;;;;;4942559;28;20071;-73
2021/07/09 12:02:04;;;;;;;3.15;2.70;;;;;;;;;;4943693;28;20043;-73
2021/07/09 12:04:37;;;;;;;4.43;2.40;;;;;;;;;;4944024;28;20047;-73
2021/07/09 12:07:33;;;;;;;2.97;2.50;;;;;;;;;;4956568;28;20067;-72
2021/07/09 12:10:08;;;;;;;4.40;2.45;;;;;;;;;;4929952;28;20409;-72
2021/07/09 12:12:38;;;;;;;2.80;2.50;;;;;;;;;;4945442;28;20236;-74
2021/07/09 12:15:15;;;;;;;3.97;2.47;;;;;;;;;;4943976;28;20129;-73
2021/07/09 12:17:42;;;;;;;4.07;2.55;;;;;;;;;;4941458;28;20070;-73
2021/07/09 12:20:19;;;;;;;4.20;2.60;;;;;;;;;;4941795;28;20508;-73
2021/07/09 12:22:48;;;;;;;6.00;2.78;;;;;;;;;;4938435;28;20070;-73
2021/07/09 12:25:16;;;;;;;5.80;3.28;;;;;;;;;;4941930;28;20063;-72
2021/07/09 12:27:43;;;;;;;3.90;2.83;;;;;;;;;;4947546;28;20691;-73
2021/07/09 12:30:14;;;;;;;4.50;2.75;;;;;;;;;;4950503;28;20063;-73
2021/07/09 12:32:44;;;;;;;3.65;3.33;;;;;;;;;;4949360;28;20518;-73
2021/07/09 12:35:11;;;;;;;6.20;3.30;;;;;;;;;;4950936;28;20133;-73
2021/07/09 12:37:38;;;;;;;4.70;2.80;;;;;;;;;;4948395;28;20474;-73
2021/07/09 12:40:11;;;;;;;5.50;2.83;;;;;;;;;;4947049;28;20575;-73
2021/07/09 12:42:38;;;;;;;5.10;2.75;;;;;;;;;;4944673;28;20491;-73
2021/07/09 12:45:05;;;;;;;3.55;2.83;;;;;;;;;;4943390;28;20115;-74
2021/07/09 12:47:35;;;;;;;3.75;3.00;;;;;;;;;;4942556;28;20119;-73
2021/07/09 12:50:14;;;;;;;5.40;3.00;;;;;;;;;;4951575;28;20055;-74
2021/07/09 12:52:41;;;;;;;4.10;2.95;;;;;;;;;;4947994;28;20118;-73
2021/07/09 12:55:27;;;;;;;4.35;2.92;;;;;;;;;;4947757;28;20102;-74
2021/07/09 12:57:54;;;;;;;7.00;3.00;;;;;;;;;;4944310;28;20352;-80
2021/07/09 13:00:20;;;;;;;4.00;2.80;;;;;;;;;;4944346;28;20121;-79
2021/07/09 13:02:53;;;;;;;5.13;2.95;;;;;;;;;;4940284;28;21560;-81
2021/07/09 13:05:19;;;;;;;3.80;3.05;;;;;;;;;;4924445;28;20118;-79
2021/07/09 13:07:46;;;;;;;5.32;3.20;;;;;;;;;;4937759;28;20625;-80
2021/07/09 13:10:17;;;;;;;4.05;3.20;;;;;;;;;;4951664;28;20062;-80
2021/07/09 13:12:44;;;;;;;4.60;3.05;;;;;;;;;;4942080;28;20709;-81
2021/07/09 13:15:10;;;;;;;4.00;2.75;;;;;;;;;;4939661;28;20496;-83
2021/07/09 13:17:38;;;;;;;4.38;2.83;;;;;;;;;;4939085;28;20079;-82
2021/07/09 13:20:19;;;;;;;3.65;2.60;;;;;;;;;;4943055;28;20035;-82
2021/07/09 13:22:49;;;;;;;;;;;;;;;;;;4946382;28;20063;-79
2021/07/09 13:25:20;;;;;;;3.55;3.03;;;;;;;;;;4945218;28;19954;-80
2021/07/09 13:28:14;;;;;;;6.60;2.67;;;;;;;;;;4928080;28;20043;-81
2021/07/09 13:30:42;;;;;;;4.38;2.92;;;;;;;;;;4934999;28;20474;-80
2021/07/09 13:33:09;;;;;;;6.95;2.92;;;;;;;;;;4948345;28;20138;-80
2021/07/09 13:35:35;;;;;;;3.10;2.35;;;;;;;;;;4944423;28;20051;-81
2021/07/09 13:38:02;;;;;;;3.13;2.30;;;;;;;;;;4947609;28;20465;-79
2021/07/09 13:40:28;;;;;;;3.38;2.50;;;;;;;;;;4948583;28;20062;-80
2021/07/09 13:42:55;;;;;;;2.78;2.33;;;;;;;;;;4947780;28;20054;-82
2021/07/09 13:45:21;;;;;;;2.83;2.30;;;;;;;;;;4943299;28;20500;-82
2021/07/09 13:47:48;;;;;;;3.50;2.80;;;;;;;;;;4948453;28;20059;-83
2021/07/09 13:50:14;;;;;;;4.55;2.50;;;;;;;;;;4948019;28;20058;-82
2021/07/09 13:52:42;;;;;;;2.85;2.38;;;;;;;;;;4944979;28;20121;-82
2021/07/09 13:55:09;;;;;;;3.80;2.90;;;;;;;;;;4944009;28;20083;-82
2021/07/09 13:57:38;;;;;;;5.70;2.65;;;;;;;;;;4942247;28;20121;-81
2021/07/09 14:00:05;;;;;;;2.88;2.35;;;;;;;;;;4939186;28;20055;-81
2021/07/09 14:02:32;;;;;;;3.33;2.45;;;;;;;;;;4955558;28;20122;-81
2021/07/09 14:05:00;;;;;;;4.82;2.40;;;;;;;;;;4940455;28;20095;-82
2021/07/09 14:07:26;;;;;;;4.22;2.50;;;;;;;;;;4941139;28;20449;-82
2021/07/09 14:09:53;;;;;;;3.75;2.42;;;;;;;;;;4938688;28;20434;-81
2021/07/09 14:12:19;;;;;;;4.90;2.75;;;;;;;;;;4938728;28;20632;-81
2021/07/09 14:14:46;;;;;;;3.95;2.60;;;;;;;;;;4938321;28;20059;-82
2021/07/09 14:17:12;;;;;;;3.85;2.80;;;;;;;;;;4936570;28;20119;-82
2021/07/09 14:19:39;;;;;;;3.33;2.50;;;;;;;;;;4936253;28;20547;-81
2021/07/09 14:22:05;;;;;;;3.15;2.53;;;;;;;;;;4936144;28;20059;-82
2021/07/09 14:24:32;;;;;;;3.22;2.30;;;;;;;;;;4936977;28;20078;-81
2021/07/09 14:26:58;;;;;;;3.70;2.45;;;;;;;;;;4946128;28;20047;-81
2021/07/09 14:29:25;;;;;;;3.00;2.38;;;;;;;;;;4938804;28;20485;-82
2021/07/09 14:31:51;;;;;;;4.97;2.58;;;;;;;;;;4938191;28;20067;-82
2021/07/09 14:34:18;;;;;;;5.93;2.53;;;;;;;;;;4942199;28;20068;-79
2021/07/09 14:36:44;;;;;;;3.40;2.00;;;;;;;;;;4939564;28;20114;-79
2021/07/09 14:39:10;;;;;;;4.78;2.60;;;;;;;;;;4938110;28;20055;-78
2021/07/09 14:41:38;;;;;;;3.20;2.42;;;;;;;;;;4936519;28;20519;-78
2021/07/09 14:44:05;;;;;;;2.88;2.17;;;;;;;;;;4939823;28;20070;-79
2021/07/09 14:46:32;;;;;;;4.65;2.28;;;;;;;;;;4941815;28;20091;-80
2021/07/09 14:48:59;;;;;;;5.75;2.78;;;;;;;;;;4939019;28;20044;-79
2021/07/09 14:51:26;;;;;;;3.55;2.30;;;;;;;;;;4936515;28;20055;-79